createdAt,value
2018-03-27T00:00:56.324Z,22.93
2018-03-27T00:03:23.826Z,25.50
2018-03-27T00:05:52.142Z,24.03
2018-03-27T00:08:19.684Z,29.03
2018-03-27T00:10:47.161Z,26.50
2018-03-27T00:13:14.635Z,24.60
2018-03-27T00:15:42.119Z,24.90
2018-03-27T00:18:09.584Z,26.17
2018-03-27T00:20:37.852Z,24.53
2018-03-27T00:23:05.320Z,25.83
2018-03-27T00:25:33.557Z,25.43
2018-03-27T00:28:12.862Z,26.87
2018-03-27T00:30:52.204Z,28.07
2018-03-27T00:33:31.596Z,26.50
2018-03-27T00:36:11.821Z,27.97
2018-03-27T00:38:51.143Z,24.13
2018-03-27T00:41:20.044Z,23.03
2018-03-27T00:43:47.551Z,23.33
2018-03-27T00:46:15.060Z,24.33
2018-03-27T00:48:42.615Z,27.67
2018-03-27T00:51:10.102Z,27.73
2018-03-27T00:53:37.683Z,26.07
2018-03-27T00:56:05.928Z,27.77
2018-03-27T00:58:33.399Z,28.87
2018-03-27T01:01:01.082Z,29.00
2018-03-27T01:03:29.310Z,24.63
2018-03-27T01:05:56.781Z,27.27
2018-03-27T01:08:24.247Z,26.67
2018-03-27T01:10:51.735Z,26.97
2018-03-27T01:13:19.961Z,29.57
2018-03-27T01:15:47.443Z,25.60
2018-03-27T01:18:15.644Z,26.00
2018-03-27T01:20:43.911Z,28.90
2018-03-27T01:23:12.138Z,27.73
2018-03-27T01:25:39.604Z,29.93
2018-03-27T01:28:07.106Z,26.80
2018-03-27T01:30:34.628Z,25.73
2018-03-27T01:33:02.113Z,28.83
2018-03-27T01:35:29.616Z,30.07
2018-03-27T01:37:57.127Z,30.23
2018-03-27T01:40:24.640Z,28.83
2018-03-27T01:42:52.128Z,29.57
2018-03-27T01:45:19.648Z,30.03
2018-03-27T01:47:47.144Z,30.10
2018-03-27T01:50:14.718Z,28.67
2018-03-27T01:52:42.280Z,27.33
2018-03-27T01:55:09.796Z,32.33
2018-03-27T01:57:37.274Z,31.27
2018-03-27T02:00:04.768Z,29.30
2018-03-27T02:02:33.109Z,30.33
2018-03-27T02:05:00.575Z,31.60
2018-03-27T02:07:28.086Z,32.80
2018-03-27T02:09:55.548Z,33.77
2018-03-27T02:12:29.098Z,33.73
2018-03-27T02:15:02.271Z,33.50
2018-03-27T02:17:35.476Z,35.57
2018-03-27T02:20:08.555Z,34.63
2018-03-27T02:22:36.625Z,31.23
2018-03-27T02:25:04.180Z,34.67
2018-03-27T02:27:31.648Z,37.17
2018-03-27T02:29:59.131Z,35.90
2018-03-27T02:32:26.640Z,31.83
2018-03-27T02:34:54.162Z,32.10
2018-03-27T02:37:21.582Z,36.10
2018-03-27T02:39:49.066Z,36.90
2018-03-27T02:42:16.649Z,32.70
2018-03-27T02:44:44.955Z,38.13
2018-03-27T02:47:12.462Z,40.37
2018-03-27T02:49:41.497Z,33.63
2018-03-27T02:52:09.010Z,37.73
2018-03-27T02:54:36.677Z,38.37
2018-03-27T02:57:04.133Z,36.63
2018-03-27T02:59:31.631Z,33.97
2018-03-27T03:01:59.104Z,36.43
2018-03-27T03:04:26.572Z,38.87
2018-03-27T03:06:54.054Z,39.60
2018-03-27T03:09:21.736Z,34.57
2018-03-27T03:11:49.216Z,39.53
2018-03-27T03:14:16.731Z,40.20
2018-03-27T03:16:44.205Z,39.90
2018-03-27T03:19:11.718Z,40.57
2018-03-27T03:21:39.917Z,40.87
2018-03-27T03:24:07.411Z,41.40
2018-03-27T03:26:34.882Z,39.70
2018-03-27T03:29:02.346Z,42.47
2018-03-27T03:31:29.823Z,46.53
2018-03-27T03:33:57.301Z,44.20
2018-03-27T03:36:24.799Z,41.20
2018-03-27T03:38:53.047Z,46.20
2018-03-27T03:41:20.525Z,47.40
2018-03-27T03:43:49.276Z,44.83
2018-03-27T03:46:16.752Z,46.43
2018-03-27T03:48:44.244Z,45.80
2018-03-27T03:51:12.472Z,51.17
2018-03-27T03:53:39.995Z,49.90
2018-03-27T03:56:07.471Z,51.37
2018-03-27T03:58:34.976Z,50.73
2018-03-27T04:01:02.497Z,50.43
2018-03-27T04:03:30.005Z,52.60
2018-03-27T04:05:57.515Z,48.60
2018-03-27T04:08:25.013Z,53.47
2018-03-27T04:10:52.535Z,52.13
2018-03-27T04:13:20.069Z,53.07
2018-03-27T04:15:47.572Z,56.33
2018-03-27T04:18:15.109Z,48.93
2018-03-27T04:20:42.588Z,53.63
2018-03-27T04:23:10.126Z,49.03
2018-03-27T04:25:37.729Z,51.43
2018-03-27T04:28:05.232Z,54.30
2018-03-27T04:30:32.695Z,49.97
2018-03-27T04:33:00.161Z,49.07
2018-03-27T04:35:27.629Z,53.43
2018-03-27T04:37:55.131Z,56.97
2018-03-27T04:40:23.383Z,56.57
2018-03-27T04:42:50.848Z,55.70
2018-03-27T04:45:18.923Z,60.73
2018-03-27T04:47:46.409Z,56.70
2018-03-27T04:50:14.635Z,57.23
2018-03-27T04:52:42.206Z,60.67
2018-03-27T04:55:09.701Z,61.77
2018-03-27T04:57:37.928Z,61.70
2018-03-27T05:00:05.424Z,69.60
2018-03-27T05:02:33.659Z,66.77
2018-03-27T05:05:01.153Z,69.30
2018-03-27T05:07:28.623Z,66.57
2018-03-27T05:09:56.130Z,68.07
2018-03-27T05:12:23.637Z,73.70
2018-03-27T05:14:51.879Z,63.37
2018-03-27T05:17:19.348Z,71.73
2018-03-27T05:19:46.830Z,65.70
2018-03-27T05:22:15.068Z,66.70
2018-03-27T05:24:42.568Z,63.10
2018-03-27T05:27:10.086Z,66.83
2018-03-27T05:29:37.581Z,61.90
2018-03-27T05:32:05.896Z,58.80
2018-03-27T05:34:33.365Z,58.80
2018-03-27T05:37:00.856Z,60.03
2018-03-27T05:39:28.311Z,55.70
2018-03-27T05:41:55.810Z,58.30
2018-03-27T05:44:23.316Z,52.87
2018-03-27T05:46:50.814Z,53.40
2018-03-27T05:49:18.314Z,47.20
2018-03-27T05:51:45.924Z,47.77
2018-03-27T05:54:13.376Z,44.43
2018-03-27T05:56:41.638Z,53.33
2018-03-27T05:59:09.146Z,41.20
2018-03-27T06:01:36.660Z,42.40
2018-03-27T06:04:04.149Z,43.57
2018-03-27T06:06:31.620Z,41.57
2018-03-27T06:08:59.165Z,38.67
2018-03-27T06:11:27.413Z,38.13
2018-03-27T06:13:55.695Z,38.00
2018-03-27T06:16:24.005Z,37.07
2018-03-27T06:18:51.625Z,34.73
2018-03-27T06:21:19.267Z,35.70
2018-03-27T06:23:46.784Z,33.07
2018-03-27T06:26:14.238Z,36.10
2018-03-27T06:28:41.721Z,39.70
2018-03-27T06:31:09.431Z,35.87
2018-03-27T06:33:37.698Z,37.73
2018-03-27T06:36:05.189Z,41.07
2018-03-27T06:38:33.433Z,38.23
2018-03-27T06:41:00.946Z,36.10
2018-03-27T06:43:28.467Z,36.90
2018-03-27T06:45:56.716Z,34.70
2018-03-27T06:48:24.183Z,39.60
2018-03-27T06:50:51.698Z,36.17
2018-03-27T06:53:19.236Z,38.07
2018-03-27T06:55:46.753Z,43.93
2018-03-27T06:58:14.311Z,38.97
2018-03-27T07:00:41.808Z,38.67
2018-03-27T07:03:09.326Z,41.63
2018-03-27T07:05:36.835Z,37.53
2018-03-27T07:08:05.062Z,41.90
2018-03-27T07:10:32.546Z,41.10
2018-03-27T07:13:00.789Z,41.03
2018-03-27T07:15:28.384Z,42.27
2018-03-27T07:17:56.510Z,40.40
2018-03-27T07:20:23.988Z,38.90
2018-03-27T07:22:51.473Z,41.33
2018-03-27T07:25:19.722Z,44.83
2018-03-27T07:27:47.179Z,39.33
2018-03-27T07:30:14.704Z,39.57
2018-03-27T07:32:42.203Z,38.77
2018-03-27T07:35:09.696Z,40.57
2018-03-27T07:37:37.193Z,41.63
2018-03-27T07:40:04.737Z,38.90
2018-03-27T07:42:32.215Z,42.57
2018-03-27T07:44:59.757Z,41.57
2018-03-27T07:47:27.231Z,35.00
2018-03-27T07:49:54.708Z,32.70
2018-03-27T07:52:22.222Z,35.37
2018-03-27T07:54:49.690Z,31.67
2018-03-27T07:57:17.159Z,30.43
2018-03-27T07:59:44.636Z,32.67
2018-03-27T08:02:12.127Z,35.13
2018-03-27T08:04:40.992Z,34.57
2018-03-27T08:07:08.517Z,38.07
2018-03-27T08:09:35.979Z,37.33
2018-03-27T08:12:03.474Z,39.50
2018-03-27T08:14:30.964Z,38.00
2018-03-27T08:16:58.546Z,39.57
2018-03-27T08:19:26.172Z,43.27
2018-03-27T08:21:54.392Z,46.77
2018-03-27T08:24:21.987Z,47.73
2018-03-27T08:26:50.835Z,52.17
2018-03-27T08:29:18.351Z,58.47
2018-03-27T08:31:46.570Z,53.20
2018-03-27T08:34:14.065Z,59.73
2018-03-27T08:36:41.533Z,58.70
2018-03-27T08:39:09.044Z,57.40
2018-03-27T08:41:36.544Z,57.47
2018-03-27T08:44:04.044Z,57.97
2018-03-27T08:46:31.615Z,64.87
2018-03-27T08:48:59.167Z,64.57
2018-03-27T08:51:26.734Z,68.07
2018-03-27T08:53:54.281Z,65.67
2018-03-27T08:56:21.858Z,66.77
2018-03-27T08:58:49.486Z,68.03
2018-03-27T09:01:17.790Z,74.77
2018-03-27T09:03:45.300Z,70.70
2018-03-27T09:06:12.792Z,70.57
2018-03-27T09:08:40.306Z,69.33
2018-03-27T09:11:07.819Z,71.57
2018-03-27T09:13:35.301Z,74.77
2018-03-27T09:16:02.808Z,78.67
2018-03-27T09:18:31.051Z,77.10
2018-03-27T09:20:58.548Z,81.27
2018-03-27T09:23:26.803Z,81.97
2018-03-27T09:25:54.272Z,78.63
2018-03-27T09:28:22.567Z,78.03
2018-03-27T09:30:50.894Z,77.13
2018-03-27T09:33:18.379Z,78.13
2018-03-27T09:35:45.858Z,85.10
2018-03-27T09:38:14.116Z,80.87
2018-03-27T09:40:41.659Z,82.80
2018-03-27T09:43:09.145Z,82.67
2018-03-27T09:45:37.419Z,83.83
2018-03-27T09:48:05.673Z,81.30
2018-03-27T09:50:33.218Z,83.90
2018-03-27T09:53:00.689Z,90.17
2018-03-27T09:55:28.179Z,90.93
2018-03-27T09:57:56.456Z,89.30
2018-03-27T10:00:30.290Z,88.03
2018-03-27T10:02:57.773Z,92.63
2018-03-27T10:05:25.372Z,86.27
2018-03-27T10:07:53.611Z,92.63
2018-03-27T10:10:21.099Z,93.97
2018-03-27T10:12:48.706Z,92.70
2018-03-27T10:15:16.204Z,94.83
2018-03-27T10:17:43.722Z,97.00
2018-03-27T10:20:11.207Z,98.83
2018-03-27T10:22:38.770Z,97.20
2018-03-27T10:25:06.248Z,98.37
2018-03-27T10:27:33.725Z,95.70
2018-03-27T10:30:01.988Z,99.90
2018-03-27T10:32:29.451Z,93.23
2018-03-27T10:34:56.965Z,95.53
2018-03-27T10:37:24.442Z,96.53
2018-03-27T10:39:51.948Z,98.83
2018-03-27T10:42:19.449Z,100.40
2018-03-27T10:44:46.947Z,97.63
2018-03-27T10:47:15.171Z,96.93
2018-03-27T10:49:42.662Z,99.87
2018-03-27T10:52:10.182Z,91.10
2018-03-27T10:54:37.667Z,99.17
2018-03-27T10:57:05.168Z,89.30
2018-03-27T10:59:32.678Z,89.70
2018-03-27T11:02:00.161Z,88.57
2018-03-27T11:04:27.695Z,101.07
2018-03-27T11:06:55.135Z,93.20
2018-03-27T11:09:22.623Z,82.00
2018-03-27T11:11:50.121Z,87.67
2018-03-27T11:14:17.639Z,87.33
2018-03-27T11:16:45.150Z,86.23
2018-03-27T11:19:12.598Z,88.90
2018-03-27T11:21:40.093Z,84.27
2018-03-27T11:24:08.008Z,75.30
2018-03-27T11:26:36.252Z,70.80
2018-03-27T11:29:03.794Z,63.13
2018-03-27T11:31:31.448Z,70.63
2018-03-27T11:33:58.964Z,80.53
2018-03-27T11:36:27.257Z,74.70
2018-03-27T11:38:55.557Z,70.10
2018-03-27T11:41:23.030Z,62.03
2018-03-27T11:43:50.508Z,54.50
2018-03-27T11:46:17.984Z,60.67
2018-03-27T11:48:45.475Z,61.10
2018-03-27T11:51:12.942Z,63.23
2018-03-27T11:53:40.436Z,59.23
2018-03-27T11:56:07.925Z,65.03
2018-03-27T11:58:35.417Z,47.60
2018-03-27T12:01:02.904Z,38.03
2018-03-27T12:03:30.387Z,38.60
2018-03-27T12:05:57.911Z,29.40
2018-03-27T12:08:25.416Z,25.40
2018-03-27T12:10:52.926Z,23.30
2018-03-27T12:13:20.416Z,29.03
2018-03-27T12:15:48.623Z,28.20
2018-03-27T12:18:16.881Z,24.47
2018-03-27T12:20:45.157Z,31.97
2018-03-27T12:23:12.687Z,30.57
2018-03-27T12:25:40.157Z,37.30
2018-03-27T12:28:07.673Z,38.73
2018-03-27T12:30:35.182Z,40.63
2018-03-27T12:33:02.700Z,33.80
2018-03-27T12:35:30.198Z,35.07
2018-03-27T12:37:57.677Z,39.80
2018-03-27T12:40:25.936Z,38.13
2018-03-27T12:42:53.447Z,37.73
2018-03-27T12:45:20.960Z,36.57
2018-03-27T12:47:48.444Z,33.50
2018-03-27T12:50:16.727Z,32.07
2018-03-27T12:52:44.234Z,27.33
2018-03-27T12:55:11.724Z,32.57
2018-03-27T12:57:40.037Z,30.93
2018-03-27T13:00:08.254Z,32.30
2018-03-27T13:02:36.684Z,29.97
2018-03-27T13:05:04.177Z,32.20
2018-03-27T13:07:32.263Z,27.17
2018-03-27T13:09:59.755Z,29.10
2018-03-27T13:12:27.234Z,28.87
2018-03-27T13:14:54.709Z,24.40
2018-03-27T13:17:22.204Z,30.50
2018-03-27T13:19:49.716Z,32.10
2018-03-27T13:22:17.335Z,29.50
2018-03-27T13:24:45.698Z,29.70
2018-03-27T13:27:13.188Z,28.60
2018-03-27T13:29:40.667Z,27.93
2018-03-27T13:32:08.171Z,29.70
2018-03-27T13:34:35.658Z,34.70
2018-03-27T13:37:03.899Z,32.90
2018-03-27T13:39:31.371Z,32.47
2018-03-27T13:41:59.631Z,31.77
2018-03-27T13:44:27.086Z,26.23
2018-03-27T13:46:54.575Z,26.73
2018-03-27T13:49:22.830Z,26.60
2018-03-27T13:51:50.426Z,23.57
2018-03-27T13:54:18.693Z,22.57
2018-03-27T13:56:46.940Z,27.17
2018-03-27T13:59:14.560Z,27.63
2018-03-27T14:01:42.045Z,23.57
2018-03-27T14:04:09.575Z,23.07
2018-03-27T14:06:37.056Z,25.37
2018-03-27T14:09:05.282Z,25.27
2018-03-27T14:11:33.588Z,26.23
2018-03-27T14:14:01.086Z,23.97
2018-03-27T14:16:28.583Z,23.63
2018-03-27T14:18:56.095Z,24.53
2018-03-27T14:21:23.642Z,28.40
2018-03-27T14:23:51.128Z,24.50
2018-03-27T14:26:18.659Z,25.50
2018-03-27T14:28:46.128Z,25.37
2018-03-27T14:31:13.616Z,23.80
2018-03-27T14:33:41.220Z,31.57
2018-03-27T14:36:08.727Z,31.00
2018-03-27T14:38:36.212Z,35.90
2018-03-27T14:41:04.533Z,35.77
2018-03-27T14:43:32.040Z,38.83
2018-03-27T14:46:00.292Z,36.97
2018-03-27T14:48:27.773Z,36.43
2018-03-27T14:50:56.017Z,35.20
2018-03-27T14:53:23.468Z,39.03
2018-03-27T14:55:51.066Z,40.03
2018-03-27T14:58:19.295Z,34.57
2018-03-27T15:00:46.918Z,38.90
2018-03-27T15:03:14.392Z,36.80
2018-03-27T15:05:41.926Z,39.13
2018-03-27T15:08:10.384Z,39.77
2018-03-27T15:10:37.871Z,39.67
2018-03-27T15:13:06.138Z,36.73
2018-03-27T15:15:34.401Z,32.87
2018-03-27T15:18:01.945Z,38.07
2018-03-27T15:20:29.617Z,39.27
2018-03-27T15:22:57.126Z,36.23
2018-03-27T15:25:25.329Z,39.50
2018-03-27T15:27:52.812Z,39.20
2018-03-27T15:30:20.275Z,39.50
2018-03-27T15:32:48.528Z,37.37
2018-03-27T15:35:16.001Z,37.90
2018-03-27T15:37:43.501Z,39.17
2018-03-27T15:40:10.999Z,37.57
2018-03-27T15:42:38.541Z,39.20
2018-03-27T15:45:06.017Z,39.47
2018-03-27T15:47:33.545Z,37.47
2018-03-27T15:50:01.031Z,41.37
2018-03-27T15:52:28.520Z,37.90
2018-03-27T15:54:56.026Z,40.23
2018-03-27T15:57:23.625Z,41.73
2018-03-27T15:59:51.135Z,39.93
2018-03-27T16:02:18.645Z,40.00
2018-03-27T16:04:46.289Z,39.40
2018-03-27T16:07:13.841Z,40.50
2018-03-27T16:09:41.349Z,42.30
2018-03-27T16:12:09.567Z,40.00
2018-03-27T16:14:37.061Z,42.60
2018-03-27T16:17:04.558Z,42.07
2018-03-27T16:19:32.071Z,40.80
2018-03-27T16:21:59.570Z,40.93
2018-03-27T16:24:27.098Z,38.40
2018-03-27T16:26:54.592Z,38.80
2018-03-27T16:29:22.097Z,38.63
2018-03-27T16:31:49.596Z,38.43
2018-03-27T16:34:17.880Z,40.03
2018-03-27T16:36:45.344Z,33.13
2018-03-27T16:39:12.819Z,32.83
2018-03-27T16:41:40.340Z,28.80
2018-03-27T16:44:08.571Z,29.67
2018-03-27T16:46:36.071Z,32.10
2018-03-27T16:49:03.537Z,28.57
2018-03-27T16:51:31.801Z,24.30
2018-03-27T16:53:59.277Z,28.43
2018-03-27T16:56:27.599Z,26.97
2018-03-27T16:58:55.075Z,22.77
2018-03-27T17:01:22.597Z,23.83
2018-03-27T17:03:50.064Z,25.87
2018-03-27T17:06:17.565Z,24.17
2018-03-27T17:08:45.072Z,25.33
2018-03-27T17:11:12.580Z,26.03
2018-03-27T17:13:40.086Z,23.60
2018-03-27T17:16:07.637Z,26.27
2018-03-27T17:18:35.083Z,23.97
2018-03-27T17:21:02.588Z,24.17
2018-03-27T17:23:30.091Z,27.63
2018-03-27T17:25:58.344Z,26.93
2018-03-27T17:28:26.512Z,24.57
2018-03-27T17:30:54.022Z,24.80
2018-03-27T17:33:21.545Z,24.23
2018-03-27T17:35:49.028Z,24.23
2018-03-27T17:38:17.345Z,33.27
2018-03-27T17:40:44.866Z,25.90
2018-03-27T17:43:13.126Z,25.27
2018-03-27T17:45:41.417Z,24.63
2018-03-27T17:48:09.651Z,30.07
2018-03-27T17:50:37.128Z,29.80
2018-03-27T17:53:04.662Z,25.63
2018-03-27T17:55:32.233Z,23.93
2018-03-27T17:57:59.700Z,26.27
2018-03-27T18:00:27.702Z,25.63
2018-03-27T18:02:55.939Z,24.43
2018-03-27T18:05:23.545Z,22.50
2018-03-27T18:07:51.228Z,26.00
2018-03-27T18:10:18.744Z,26.17
2018-03-27T18:12:47.008Z,30.67
2018-03-27T18:15:14.472Z,25.80
2018-03-27T18:17:42.768Z,31.87
2018-03-27T18:20:11.099Z,27.27
2018-03-27T18:22:38.550Z,31.30
2018-03-27T18:25:06.084Z,31.63
2018-03-27T18:27:33.646Z,28.77
2018-03-27T18:30:01.164Z,33.60
2018-03-27T18:32:28.672Z,30.90
2018-03-27T18:34:56.176Z,28.87
2018-03-27T18:37:23.735Z,31.20
2018-03-27T18:39:51.198Z,31.37
2018-03-27T18:42:18.661Z,33.43
2018-03-27T18:44:46.926Z,31.37
2018-03-27T18:47:14.438Z,34.73
2018-03-27T18:49:41.917Z,31.50
2018-03-27T18:52:09.399Z,34.07
2018-03-27T18:54:40.616Z,33.00
2018-03-27T18:57:08.236Z,34.27
2018-03-27T18:59:36.484Z,33.47
2018-03-27T19:02:03.997Z,37.77
2018-03-27T19:04:31.494Z,35.03
2018-03-27T19:06:59.010Z,35.77
2018-03-27T19:09:26.483Z,34.30
2018-03-27T19:11:53.969Z,34.50
2018-03-27T19:14:21.449Z,33.83
2018-03-27T19:16:49.704Z,32.87
2018-03-27T19:19:17.188Z,40.87
2018-03-27T19:21:45.416Z,36.90
2018-03-27T19:24:12.922Z,37.67
2018-03-27T19:26:41.166Z,37.40
2018-03-27T19:29:08.663Z,41.53
2018-03-27T19:34:10.097Z,38.83
2018-03-27T19:36:37.611Z,42.40
2018-03-27T19:39:05.837Z,37.70
2018-03-27T19:41:33.303Z,40.87
2018-03-27T19:44:00.814Z,42.13
2018-03-27T19:46:28.316Z,47.60
2018-03-27T19:48:55.877Z,47.47
2018-03-27T19:51:23.378Z,49.00
2018-03-27T19:53:51.459Z,47.83
2018-03-27T19:56:18.923Z,46.93
2018-03-27T19:58:46.580Z,49.20
2018-03-27T20:01:14.096Z,49.67
2018-03-27T20:03:42.452Z,51.67
2018-03-27T20:06:09.958Z,56.33
2018-03-27T20:08:37.467Z,52.33
2018-03-27T20:11:05.094Z,52.83
2018-03-27T20:13:32.579Z,50.97
2018-03-27T20:16:00.855Z,57.70
2018-03-27T20:18:28.546Z,59.27
2018-03-27T20:20:56.052Z,58.13
2018-03-27T20:23:23.536Z,55.10
2018-03-27T20:25:51.043Z,57.03
2018-03-27T20:28:18.525Z,63.83
2018-03-27T20:30:46.031Z,60.10
2018-03-27T20:33:13.516Z,57.40
2018-03-27T20:35:41.004Z,59.70
2018-03-27T20:38:08.524Z,55.90
2018-03-27T20:40:36.012Z,57.97
2018-03-27T20:43:03.525Z,61.67
2018-03-27T20:45:31.011Z,63.73
2018-03-27T20:47:59.264Z,62.43
2018-03-27T20:50:26.793Z,65.33
2018-03-27T20:52:54.264Z,64.47
2018-03-27T20:55:21.874Z,63.70
2018-03-27T20:57:49.371Z,66.67
2018-03-27T21:00:16.877Z,63.23
2018-03-27T21:02:45.174Z,64.30
2018-03-27T21:05:12.675Z,62.13
2018-03-27T21:07:40.939Z,56.90
2018-03-27T21:10:08.449Z,56.03
2018-03-27T21:12:36.716Z,59.10
2018-03-27T21:15:05.045Z,61.73
2018-03-27T21:17:33.276Z,59.60
2018-03-27T21:20:01.513Z,62.07
2018-03-27T21:22:29.011Z,52.23
2018-03-27T21:24:57.251Z,58.83
2018-03-27T21:27:25.336Z,55.50
2018-03-27T21:29:52.806Z,57.77
2018-03-27T21:32:21.057Z,57.13
2018-03-27T21:34:48.508Z,60.77
2018-03-27T21:37:16.112Z,59.70
2018-03-27T21:39:44.412Z,60.43
2018-03-27T21:42:11.900Z,65.43
2018-03-27T21:44:39.394Z,60.83
2018-03-27T21:47:06.995Z,60.03
2018-03-27T21:49:34.556Z,53.63
2018-03-27T21:52:02.038Z,54.90
2018-03-27T21:54:29.493Z,51.30
2018-03-27T21:56:56.995Z,59.03
2018-03-27T21:59:25.233Z,57.40
2018-03-27T22:01:52.781Z,53.87
2018-03-27T22:04:20.280Z,57.43
2018-03-27T22:15:29.362Z,53.57
2018-03-27T22:17:56.928Z,50.97
2018-03-27T22:20:25.321Z,48.63
2018-03-27T22:22:53.652Z,44.77
2018-03-27T22:25:21.294Z,46.00
2018-03-27T22:27:49.074Z,47.60
2018-03-27T22:30:16.721Z,42.63
2018-03-27T22:32:44.259Z,41.83
2018-03-27T22:35:11.950Z,42.30
2018-03-27T22:37:39.484Z,44.93
2018-03-27T22:40:07.081Z,40.40
2018-03-27T22:45:25.306Z,41.83
2018-03-27T22:47:52.766Z,42.27
2018-03-27T22:50:20.253Z,38.37
2018-03-27T22:52:47.754Z,37.53
2018-03-27T22:55:15.999Z,36.33
2018-03-27T22:57:43.956Z,39.00
2018-03-27T23:00:11.434Z,36.47
2018-03-27T23:02:38.916Z,35.63
2018-03-27T23:05:06.392Z,36.27
2018-03-27T23:07:33.919Z,35.93
2018-03-27T23:10:01.405Z,35.83
2018-03-27T23:12:28.905Z,34.10
2018-03-27T23:14:56.400Z,36.50
2018-03-27T23:17:24.007Z,33.90
2018-03-27T23:19:51.510Z,32.77
2018-03-27T23:22:30.753Z,32.63
2018-03-27T23:24:58.221Z,33.53
2018-03-27T23:27:25.868Z,28.70
2018-03-27T23:29:53.332Z,29.30
2018-03-27T23:32:21.596Z,32.03
2018-03-27T23:34:49.078Z,30.03
2018-03-27T23:37:17.316Z,29.33
2018-03-27T23:39:44.801Z,26.87
2018-03-27T23:42:12.398Z,28.53
2018-03-27T23:44:39.905Z,28.63
2018-03-27T23:47:07.456Z,26.80
2018-03-27T23:49:35.649Z,25.43
2018-03-27T23:52:03.889Z,24.87
2018-03-27T23:54:31.438Z,24.17
2018-03-27T23:56:58.908Z,23.07
2018-03-27T23:59:26.494Z,22.03
